Terminal Aerodrome Forecast
Issued by NWS Amarillo, TX

Current Version | Previous Version | Text Only | Print | Product List | Glossary Off
Versions: 1 2 3 4 5 6 7 8 9 10 11 12 13 14 15 16 17 18 19 20 21

630
FTUS44 KAMA 201120
TAFAMA
TAF
KAMA 201120Z 2012/2112 26026G38KT P6SM SCT300
     FM210000 24015G25KT P6SM FEW300
     FM210500 23014KT P6SM SCT300=

USA.gov is the U.S. government's official web portal to all federal, state and local government web resources and services.